sensor_id;sensor_type;location;lat;lon;timestamp;pressure;altitude;pressure_sealevel;temperature;humidity
30636;BME280;17400;52.392;9.750;2023-04-19T00:00:01;102263.09;;;10.82;45.74
30636;BME280;17400;52.392;9.750;2023-04-19T00:02:29;102260.00;;;10.77;45.82
30636;BME280;17400;52.392;9.750;2023-04-19T00:04:57;102266.44;;;10.76;47.34
30636;BME280;17400;52.392;9.750;2023-04-19T00:07:27;102258.25;;;10.68;46.79
30636;BME280;17400;52.392;9.750;2023-04-19T00:09:55;102257.03;;;10.62;46.81
30636;BME280;17400;52.392;9.750;2023-04-19T00:12:23;102252.94;;;10.58;46.66
30636;BME280;17400;52.392;9.750;2023-04-19T00:14:51;102247.69;;;10.57;47.62
30636;BME280;17400;52.392;9.750;2023-04-19T00:17:18;102246.34;;;10.61;46.64
30636;BME280;17400;52.392;9.750;2023-04-19T00:19:46;102254.19;;;10.64;47.27
30636;BME280;17400;52.392;9.750;2023-04-19T00:22:14;102256.19;;;10.62;46.24
30636;BME280;17400;52.392;9.750;2023-04-19T00:24:44;102264.41;;;10.52;45.72
30636;BME280;17400;52.392;9.750;2023-04-19T00:27:11;102265.53;;;10.41;44.88
30636;BME280;17400;52.392;9.750;2023-04-19T00:29:39;102254.91;;;10.30;45.39
30636;BME280;17400;52.392;9.750;2023-04-19T00:32:07;102261.31;;;10.29;45.25
30636;BME280;17400;52.392;9.750;2023-04-19T00:34:35;102264.91;;;10.29;45.95
30636;BME280;17400;52.392;9.750;2023-04-19T00:37:02;102258.47;;;10.30;45.46
30636;BME280;17400;52.392;9.750;2023-04-19T00:39:31;102255.41;;;10.07;45.63
30636;BME280;17400;52.392;9.750;2023-04-19T00:42:00;102262.81;;;10.05;45.81
30636;BME280;17400;52.392;9.750;2023-04-19T00:44:28;102263.53;;;10.07;46.54
30636;BME280;17400;52.392;9.750;2023-04-19T00:46:56;102263.84;;;10.04;46.10
30636;BME280;17400;52.392;9.750;2023-04-19T00:49:24;102263.75;;;10.14;46.90
30636;BME280;17400;52.392;9.750;2023-04-19T00:51:52;102274.47;;;10.24;47.48
30636;BME280;17400;52.392;9.750;2023-04-19T00:54:22;102274.34;;;10.07;46.38
30636;BME280;17400;52.392;9.750;2023-04-19T00:56:51;102269.47;;;9.93;46.95
30636;BME280;17400;52.392;9.750;2023-04-19T00:59:20;102271.81;;;9.88;46.81
30636;BME280;17400;52.392;9.750;2023-04-19T01:01:48;102268.78;;;9.91;46.78
30636;BME280;17400;52.392;9.750;2023-04-19T01:04:16;102277.03;;;9.89;47.77
30636;BME280;17400;52.392;9.750;2023-04-19T01:06:44;102272.78;;;9.87;47.17
30636;BME280;17400;52.392;9.750;2023-04-19T01:09:13;102271.19;;;9.94;47.82
30636;BME280;17400;52.392;9.750;2023-04-19T01:11:41;102273.34;;;9.90;47.77
30636;BME280;17400;52.392;9.750;2023-04-19T01:14:09;102271.81;;;9.88;47.91
30636;BME280;17400;52.392;9.750;2023-04-19T01:16:38;102263.91;;;9.58;47.73
30636;BME280;17400;52.392;9.750;2023-04-19T01:19:06;102274.47;;;9.52;48.09
30636;BME280;17400;52.392;9.750;2023-04-19T01:21:35;102264.25;;;9.45;47.90
30636;BME280;17400;52.392;9.750;2023-04-19T01:24:05;102270.56;;;9.36;48.34
30636;BME280;17400;52.392;9.750;2023-04-19T01:26:33;102272.47;;;9.26;49.15
30636;BME280;17400;52.392;9.750;2023-04-19T01:29:01;102269.47;;;9.29;49.40
30636;BME280;17400;52.392;9.750;2023-04-19T01:31:29;102269.56;;;9.37;49.35
30636;BME280;17400;52.392;9.750;2023-04-19T01:33:57;102271.97;;;9.40;49.19
30636;BME280;17400;52.392;9.750;2023-04-19T01:36:24;102271.31;;;9.28;49.35
30636;BME280;17400;52.392;9.750;2023-04-19T01:38:54;102276.03;;;9.26;49.70
30636;BME280;17400;52.392;9.750;2023-04-19T01:41:23;102271.72;;;9.33;50.12
30636;BME280;17400;52.392;9.750;2023-04-19T01:43:52;102274.88;;;9.29;49.93
30636;BME280;17400;52.392;9.750;2023-04-19T01:46:20;102273.75;;;9.31;50.13
30636;BME280;17400;52.392;9.750;2023-04-19T01:48:48;102274.44;;;9.33;49.99
30636;BME280;17400;52.392;9.750;2023-04-19T01:51:16;102268.19;;;9.33;50.28
30636;BME280;17400;52.392;9.750;2023-04-19T01:53:43;102273.19;;;9.28;50.58
30636;BME280;17400;52.392;9.750;2023-04-19T01:56:11;102273.19;;;9.28;50.52
30636;BME280;17400;52.392;9.750;2023-04-19T01:58:40;102264.09;;;9.29;50.77
30636;BME280;17400;52.392;9.750;2023-04-19T02:01:08;102259.28;;;9.23;51.01
30636;BME280;17400;52.392;9.750;2023-04-19T02:03:38;102261.97;;;9.23;51.21
30636;BME280;17400;52.392;9.750;2023-04-19T02:06:09;102254.19;;;9.20;51.32
30636;BME280;17400;52.392;9.750;2023-04-19T02:08:37;102255.34;;;9.07;51.53
30636;BME280;17400;52.392;9.750;2023-04-19T02:11:05;102266.78;;;9.01;51.30
30636;BME280;17400;52.392;9.750;2023-04-19T02:13:33;102256.56;;;8.95;52.12
30636;BME280;17400;52.392;9.750;2023-04-19T02:16:02;102263.03;;;9.02;52.18
30636;BME280;17400;52.392;9.750;2023-04-19T02:18:32;102266.56;;;9.12;51.91
30636;BME280;17400;52.392;9.750;2023-04-19T02:21:01;102263.88;;;9.12;51.77
30636;BME280;17400;52.392;9.750;2023-04-19T02:23:29;102267.47;;;9.03;51.73
30636;BME280;17400;52.392;9.750;2023-04-19T02:25:56;102274.97;;;9.09;52.76
30636;BME280;17400;52.392;9.750;2023-04-19T02:28:24;102275.66;;;9.11;52.73
30636;BME280;17400;52.392;9.750;2023-04-19T02:30:52;102273.56;;;9.05;52.32
30636;BME280;17400;52.392;9.750;2023-04-19T02:33:21;102279.25;;;9.02;53.11
30636;BME280;17400;52.392;9.750;2023-04-19T02:35:49;102279.88;;;8.96;52.88
30636;BME280;17400;52.392;9.750;2023-04-19T02:38:17;102282.25;;;8.99;53.35
30636;BME280;17400;52.392;9.750;2023-04-19T02:40:45;102280.56;;;8.98;53.49
30636;BME280;17400;52.392;9.750;2023-04-19T02:43:12;102284.72;;;8.92;53.23
30636;BME280;17400;52.392;9.750;2023-04-19T02:45:40;102278.75;;;8.89;53.80
30636;BME280;17400;52.392;9.750;2023-04-19T02:48:07;102277.50;;;8.83;53.73
30636;BME280;17400;52.392;9.750;2023-04-19T02:50:37;102281.03;;;8.83;54.20
30636;BME280;17400;52.392;9.750;2023-04-19T02:53:04;102277.63;;;8.81;54.18
30636;BME280;17400;52.392;9.750;2023-04-19T02:55:32;102279.88;;;8.86;54.23
30636;BME280;17400;52.392;9.750;2023-04-19T02:58:00;102284.19;;;8.79;53.89
30636;BME280;17400;52.392;9.750;2023-04-19T03:00:28;102271.09;;;8.74;54.71
30636;BME280;17400;52.392;9.750;2023-04-19T03:02:56;102273.28;;;8.71;54.51
30636;BME280;17400;52.392;9.750;2023-04-19T03:05:25;102271.03;;;8.56;55.00
30636;BME280;17400;52.392;9.750;2023-04-19T03:07:54;102275.72;;;8.44;55.71
30636;BME280;17400;52.392;9.750;2023-04-19T03:10:21;102271.75;;;8.48;56.33
30636;BME280;17400;52.392;9.750;2023-04-19T03:12:49;102269.91;;;8.49;55.73
30636;BME280;17400;52.392;9.750;2023-04-19T03:15:17;102277.00;;;8.50;56.15
30636;BME280;17400;52.392;9.750;2023-04-19T03:17:45;102272.28;;;8.42;56.41
30636;BME280;17400;52.392;9.750;2023-04-19T03:20:13;102270.03;;;8.28;56.53
30636;BME280;17400;52.392;9.750;2023-04-19T03:22:42;102276.72;;;8.24;57.17
30636;BME280;17400;52.392;9.750;2023-04-19T03:25:11;102273.16;;;8.13;57.57
30636;BME280;17400;52.392;9.750;2023-04-19T03:27:39;102265.50;;;8.18;57.75
30636;BME280;17400;52.392;9.750;2023-04-19T03:30:08;102265.22;;;8.22;58.03
30636;BME280;17400;52.392;9.750;2023-04-19T03:32:35;102259.13;;;8.20;57.95
30636;BME280;17400;52.392;9.750;2023-04-19T03:35:04;102262.94;;;8.17;58.14
30636;BME280;17400;52.392;9.750;2023-04-19T03:37:32;102261.94;;;8.08;58.11
30636;BME280;17400;52.392;9.750;2023-04-19T03:39:59;102263.22;;;8.04;59.40
30636;BME280;17400;52.392;9.750;2023-04-19T03:42:29;102256.41;;;8.00;58.88
30636;BME280;17400;52.392;9.750;2023-04-19T03:44:57;102250.88;;;8.01;59.44
30636;BME280;17400;52.392;9.750;2023-04-19T03:47:25;102259.13;;;8.00;59.55
30636;BME280;17400;52.392;9.750;2023-04-19T03:49:52;102254.72;;;7.99;59.53
30636;BME280;17400;52.392;9.750;2023-04-19T03:52:20;102256.72;;;7.97;60.25
30636;BME280;17400;52.392;9.750;2023-04-19T03:54:47;102256.72;;;7.97;60.25
30636;BME280;17400;52.392;9.750;2023-04-19T03:57:15;102253.16;;;7.87;60.25
30636;BME280;17400;52.392;9.750;2023-04-19T03:59:45;102251.59;;;7.84;60.59
30636;BME280;17400;52.392;9.750;2023-04-19T04:02:13;102251.31;;;7.77;61.44
30636;BME280;17400;52.392;9.750;2023-04-19T04:04:41;102258.41;;;7.78;61.61
30636;BME280;17400;52.392;9.750;2023-04-19T04:07:09;102253.72;;;7.80;61.30
30636;BME280;17400;52.392;9.750;2023-04-19T04:09:37;102257.97;;;7.73;62.19
30636;BME280;17400;52.392;9.750;2023-04-19T04:12:05;102257.78;;;7.45;62.64
30636;BME280;17400;52.392;9.750;2023-04-19T04:14:32;102255.09;;;7.45;64.12
30636;BME280;17400;52.392;9.750;2023-04-19T04:17:01;102260.50;;;7.45;64.42
30636;BME280;17400;52.392;9.750;2023-04-19T04:19:29;102251.44;;;7.56;64.38
30636;BME280;17400;52.392;9.750;2023-04-19T04:21:57;102257.09;;;7.53;64.37
30636;BME280;17400;52.392;9.750;2023-04-19T04:24:25;102248.75;;;7.66;64.46
30636;BME280;17400;52.392;9.750;2023-04-19T04:26:53;102253.13;;;7.67;63.64
30636;BME280;17400;52.392;9.750;2023-04-19T04:29:23;102254.41;;;7.63;64.20
30636;BME280;17400;52.392;9.750;2023-04-19T04:31:51;102252.69;;;7.52;64.84
30636;BME280;17400;52.392;9.750;2023-04-19T04:34:20;102251.13;;;7.49;64.98
30636;BME280;17400;52.392;9.750;2023-04-19T04:36:48;102254.81;;;7.48;65.36
30636;BME280;17400;52.392;9.750;2023-04-19T04:39:16;102257.25;;;7.52;65.28
30636;BME280;17400;52.392;9.750;2023-04-19T04:41:44;102264.75;;;7.58;65.42
30636;BME280;17400;52.392;9.750;2023-04-19T04:44:12;102258.38;;;7.59;65.36
30636;BME280;17400;52.392;9.750;2023-04-19T04:46:41;102259.94;;;7.52;65.72
30636;BME280;17400;52.392;9.750;2023-04-19T04:49:10;102258.91;;;7.43;66.24
30636;BME280;17400;52.392;9.750;2023-04-19T04:51:42;102264.03;;;7.46;66.67
30636;BME280;17400;52.392;9.750;2023-04-19T04:54:16;102258.47;;;7.38;67.42
30636;BME280;17400;52.392;9.750;2023-04-19T04:56:43;102261.75;;;7.41;68.07
30636;BME280;17400;52.392;9.750;2023-04-19T04:59:11;102258.91;;;7.33;67.32
30636;BME280;17400;52.392;9.750;2023-04-19T05:01:39;102257.06;;;7.33;68.34
30636;BME280;17400;52.392;9.750;2023-04-19T05:04:07;102267.00;;;7.33;68.44
30636;BME280;17400;52.392;9.750;2023-04-19T05:06:35;102261.03;;;7.29;68.15
30636;BME280;17400;52.392;9.750;2023-04-19T05:09:07;102255.63;;;7.29;69.35
30636;BME280;17400;52.392;9.750;2023-04-19T05:11:35;102256.91;;;7.25;69.39
30636;BME280;17400;52.392;9.750;2023-04-19T05:14:03;102257.16;;;7.22;69.80
30636;BME280;17400;52.392;9.750;2023-04-19T05:16:31;102261.69;;;7.22;69.57
30636;BME280;17400;52.392;9.750;2023-04-19T05:18:59;102266.81;;;7.25;69.99
30636;BME280;17400;52.392;9.750;2023-04-19T05:21:27;102264.09;;;7.25;70.29
30636;BME280;17400;52.392;9.750;2023-04-19T05:23:54;102265.38;;;7.21;70.11
30636;BME280;17400;52.392;9.750;2023-04-19T05:26:23;102260.56;;;7.14;71.11
30636;BME280;17400;52.392;9.750;2023-04-19T05:28:51;102255.03;;;7.16;71.83
30636;BME280;17400;52.392;9.750;2023-04-19T05:31:19;102262.44;;;7.24;71.64
30636;BME280;17400;52.392;9.750;2023-04-19T05:33:47;102263.41;;;7.23;71.50
30636;BME280;17400;52.392;9.750;2023-04-19T05:36:15;102265.13;;;7.24;71.98
30636;BME280;17400;52.392;9.750;2023-04-19T05:38:43;102258.03;;;7.32;71.48
30636;BME280;17400;52.392;9.750;2023-04-19T05:41:11;102249.81;;;7.34;71.45
30636;BME280;17400;52.392;9.750;2023-04-19T05:43:40;102263.19;;;7.36;71.94
30636;BME280;17400;52.392;9.750;2023-04-19T05:46:08;102256.78;;;7.37;71.54
30636;BME280;17400;52.392;9.750;2023-04-19T05:48:35;102254.50;;;7.32;71.84
30636;BME280;17400;52.392;9.750;2023-04-19T05:51:06;102253.53;;;7.43;72.15
30636;BME280;17400;52.392;9.750;2023-04-19T05:53:33;102265.00;;;7.35;71.66
30636;BME280;17400;52.392;9.750;2023-04-19T05:56:01;102258.34;;;7.39;71.83
30636;BME280;17400;52.392;9.750;2023-04-19T05:58:29;102253.38;;;7.44;71.71
30636;BME280;17400;52.392;9.750;2023-04-19T06:00:58;102244.31;;;7.45;71.08
30636;BME280;17400;52.392;9.750;2023-04-19T06:03:26;102255.25;;;7.44;71.11
30636;BME280;17400;52.392;9.750;2023-04-19T06:05:58;102250.16;;;7.50;71.79
30636;BME280;17400;52.392;9.750;2023-04-19T06:08:26;102253.25;;;7.46;71.51
30636;BME280;17400;52.392;9.750;2023-04-19T06:10:55;102257.53;;;7.58;71.61
30636;BME280;17400;52.392;9.750;2023-04-19T06:13:33;102252.84;;;7.60;70.38
30636;BME280;17400;52.392;9.750;2023-04-19T06:16:06;102244.91;;;7.68;70.77
30636;BME280;17400;52.392;9.750;2023-04-19T06:18:34;102249.34;;;7.79;70.39
30636;BME280;17400;52.392;9.750;2023-04-19T06:21:02;102251.47;;;8.05;68.84
30636;BME280;17400;52.392;9.750;2023-04-19T06:23:31;102248.75;;;8.25;67.14
30636;BME280;17400;52.392;9.750;2023-04-19T06:25:59;102239.50;;;8.37;65.94
30636;BME280;17400;52.392;9.750;2023-04-19T06:28:27;102236.38;;;8.52;65.30
30636;BME280;17400;52.392;9.750;2023-04-19T06:30:55;102235.09;;;8.46;64.51
30636;BME280;17400;52.392;9.750;2023-04-19T06:33:24;102237.94;;;8.44;64.22
30636;BME280;17400;52.392;9.750;2023-04-19T06:35:51;102232.69;;;8.33;63.63
30636;BME280;17400;52.392;9.750;2023-04-19T06:38:19;102234.97;;;8.28;64.36
30636;BME280;17400;52.392;9.750;2023-04-19T06:40:46;102234.09;;;8.37;64.36
30636;BME280;17400;52.392;9.750;2023-04-19T06:43:14;102236.06;;;8.45;63.21
30636;BME280;17400;52.392;9.750;2023-04-19T06:45:42;102242.06;;;8.48;62.11
30636;BME280;17400;52.392;9.750;2023-04-19T06:48:10;102232.25;;;8.38;60.87
30636;BME280;17400;52.392;9.750;2023-04-19T06:50:38;102228.88;;;8.45;60.72
30636;BME280;17400;52.392;9.750;2023-04-19T06:53:06;102220.69;;;8.65;60.55
30636;BME280;17400;52.392;9.750;2023-04-19T06:55:34;102219.69;;;8.66;56.51
30636;BME280;17400;52.392;9.750;2023-04-19T06:58:01;102218.81;;;8.75;56.84
30636;BME280;17400;52.392;9.750;2023-04-19T07:00:29;102211.19;;;8.98;57.28
30636;BME280;17400;52.392;9.750;2023-04-19T07:02:57;102209.28;;;9.09;57.00
30636;BME280;17400;52.392;9.750;2023-04-19T07:05:28;102218.03;;;9.21;57.11
30636;BME280;17400;52.392;9.750;2023-04-19T07:07:57;102211.06;;;9.18;55.70
30636;BME280;17400;52.392;9.750;2023-04-19T07:10:25;102206.53;;;9.19;55.79
30636;BME280;17400;52.392;9.750;2023-04-19T07:12:53;102206.69;;;9.17;55.62
30636;BME280;17400;52.392;9.750;2023-04-19T07:15:20;102207.53;;;9.17;54.77
30636;BME280;17400;52.392;9.750;2023-04-19T07:17:48;102208.63;;;9.25;54.14
30636;BME280;17400;52.392;9.750;2023-04-19T07:20:16;102214.13;;;9.33;53.83
30636;BME280;17400;52.392;9.750;2023-04-19T07:22:44;102211.91;;;9.46;53.38
30636;BME280;17400;52.392;9.750;2023-04-19T07:25:13;102208.66;;;9.61;53.21
30636;BME280;17400;52.392;9.750;2023-04-19T07:27:41;102201.00;;;9.56;52.32
30636;BME280;17400;52.392;9.750;2023-04-19T07:30:09;102193.66;;;9.48;51.58
30636;BME280;17400;52.392;9.750;2023-04-19T07:32:37;102198.06;;;9.49;51.40
30636;BME280;17400;52.392;9.750;2023-04-19T07:35:06;102191.75;;;9.41;51.51
30636;BME280;17400;52.392;9.750;2023-04-19T07:37:33;102194.91;;;9.54;51.96
30636;BME280;17400;52.392;9.750;2023-04-19T07:40:01;102187.81;;;9.71;51.75
30636;BME280;17400;52.392;9.750;2023-04-19T07:42:32;102181.91;;;9.94;50.80
30636;BME280;17400;52.392;9.750;2023-04-19T07:44:59;102184.78;;;9.92;49.98
30636;BME280;17400;52.392;9.750;2023-04-19T07:47:27;102182.00;;;9.84;48.82
30636;BME280;17400;52.392;9.750;2023-04-19T07:49:55;102179.38;;;9.74;49.42
30636;BME280;17400;52.392;9.750;2023-04-19T07:52:23;102180.78;;;9.78;48.72
30636;BME280;17400;52.392;9.750;2023-04-19T07:54:51;102175.56;;;10.03;49.32
30636;BME280;17400;52.392;9.750;2023-04-19T07:57:18;102172.22;;;10.09;48.03
30636;BME280;17400;52.392;9.750;2023-04-19T07:59:48;102171.94;;;9.94;47.08
30636;BME280;17400;52.392;9.750;2023-04-19T08:02:15;102163.28;;;9.91;46.40
30636;BME280;17400;52.392;9.750;2023-04-19T08:04:44;102166.31;;;9.88;46.58
30636;BME280;17400;52.392;9.750;2023-04-19T08:07:14;102168.06;;;9.97;47.24
30636;BME280;17400;52.392;9.750;2023-04-19T08:09:41;102163.69;;;10.22;47.45
30636;BME280;17400;52.392;9.750;2023-04-19T08:12:09;102161.78;;;10.41;46.44
30636;BME280;17400;52.392;9.750;2023-04-19T08:14:53;102155.13;;;10.53;45.56
30636;BME280;17400;52.392;9.750;2023-04-19T08:17:33;102156.53;;;10.74;45.40
30636;BME280;17400;52.392;9.750;2023-04-19T08:20:09;102156.75;;;10.80;44.46
30636;BME280;17400;52.392;9.750;2023-04-19T08:22:38;102145.59;;;10.83;42.03
30636;BME280;17400;52.392;9.750;2023-04-19T08:25:07;102149.50;;;10.89;40.53
30636;BME280;17400;52.392;9.750;2023-04-19T08:27:35;102139.94;;;10.77;39.49
30636;BME280;17400;52.392;9.750;2023-04-19T08:30:05;102139.44;;;10.73;39.70
30636;BME280;17400;52.392;9.750;2023-04-19T08:32:34;102138.31;;;10.92;40.93
30636;BME280;17400;52.392;9.750;2023-04-19T08:35:03;102141.72;;;10.94;39.74
30636;BME280;17400;52.392;9.750;2023-04-19T08:37:31;102143.75;;;11.00;40.83
30636;BME280;17400;52.392;9.750;2023-04-19T08:39:58;102135.50;;;11.02;39.49
30636;BME280;17400;52.392;9.750;2023-04-19T08:42:26;102135.69;;;11.09;39.29
30636;BME280;17400;52.392;9.750;2023-04-19T08:45:05;102141.63;;;11.21;39.02
30636;BME280;17400;52.392;9.750;2023-04-19T08:47:56;102131.47;;;11.23;39.13
30636;BME280;17400;52.392;9.750;2023-04-19T08:50:28;102130.47;;;11.40;39.73
30636;BME280;17400;52.392;9.750;2023-04-19T08:53:11;102133.88;;;11.50;37.66
30636;BME280;17400;52.392;9.750;2023-04-19T08:55:50;102120.47;;;11.32;36.90
30636;BME280;17400;52.392;9.750;2023-04-19T08:58:22;102114.19;;;11.15;36.29
30636;BME280;17400;52.392;9.750;2023-04-19T09:01:08;102132.09;;;11.08;35.81
30636;BME280;17400;52.392;9.750;2023-04-19T09:03:52;102122.66;;;11.21;35.75
30636;BME280;17400;52.392;9.750;2023-04-19T09:06:34;102122.63;;;11.12;36.44
30636;BME280;17400;52.392;9.750;2023-04-19T09:09:16;102115.38;;;11.29;35.92
30636;BME280;17400;52.392;9.750;2023-04-19T09:11:47;102111.16;;;11.43;36.30
30636;BME280;17400;52.392;9.750;2023-04-19T09:14:16;102115.88;;;11.49;35.85
30636;BME280;17400;52.392;9.750;2023-04-19T09:16:46;102111.84;;;11.62;36.10
30636;BME280;17400;52.392;9.750;2023-04-19T09:19:14;102108.25;;;11.61;35.09
30636;BME280;17400;52.392;9.750;2023-04-19T09:21:50;102106.09;;;11.48;36.12
30636;BME280;17400;52.392;9.750;2023-04-19T09:24:36;102097.59;;;11.60;35.67
30636;BME280;17400;52.392;9.750;2023-04-19T09:27:07;102082.50;;;11.74;35.75
30636;BME280;17400;52.392;9.750;2023-04-19T09:29:37;102096.06;;;11.65;34.99
30636;BME280;17400;52.392;9.750;2023-04-19T09:32:06;102089.13;;;11.63;34.92
30636;BME280;17400;52.392;9.750;2023-04-19T09:34:34;102073.50;;;11.73;35.29
30636;BME280;17400;52.392;9.750;2023-04-19T09:37:11;102077.75;;;11.84;35.71
30636;BME280;17400;52.392;9.750;2023-04-19T09:39:58;102066.03;;;12.00;36.18
30636;BME280;17400;52.392;9.750;2023-04-19T09:46:03;102054.16;;;12.09;35.86
30636;BME280;17400;52.392;9.750;2023-04-19T09:48:35;102048.19;;;12.14;36.31
30636;BME280;17400;52.392;9.750;2023-04-19T09:51:03;102040.53;;;12.18;36.03
30636;BME280;17400;52.392;9.750;2023-04-19T09:53:39;102035.16;;;12.09;35.91
30636;BME280;17400;52.392;9.750;2023-04-19T09:56:08;102038.19;;;12.14;36.86
30636;BME280;17400;52.392;9.750;2023-04-19T09:58:38;102022.56;;;12.16;35.90
30636;BME280;17400;52.392;9.750;2023-04-19T10:01:22;102022.41;;;12.10;36.31
30636;BME280;17400;52.392;9.750;2023-04-19T10:03:53;102030.34;;;12.20;36.48
30636;BME280;17400;52.392;9.750;2023-04-19T10:06:33;102010.31;;;12.21;35.47
30636;BME280;17400;52.392;9.750;2023-04-19T10:09:22;102013.25;;;12.11;35.13
30636;BME280;17400;52.392;9.750;2023-04-19T10:11:52;102009.53;;;12.12;34.95
30636;BME280;17400;52.392;9.750;2023-04-19T10:14:38;101995.41;;;12.16;34.82
30636;BME280;17400;52.392;9.750;2023-04-19T10:17:07;101998.31;;;12.15;34.79
30636;BME280;17400;52.392;9.750;2023-04-19T10:19:36;101982.28;;;12.28;35.32
30636;BME280;17400;52.392;9.750;2023-04-19T10:22:06;101981.03;;;12.39;34.20
30636;BME280;17400;52.392;9.750;2023-04-19T10:24:35;101980.38;;;12.37;34.33
30636;BME280;17400;52.392;9.750;2023-04-19T10:27:09;101973.75;;;12.40;34.39
30636;BME280;17400;52.392;9.750;2023-04-19T10:29:54;101973.88;;;12.46;34.13
30636;BME280;17400;52.392;9.750;2023-04-19T10:32:22;101972.81;;;12.56;33.94
30636;BME280;17400;52.392;9.750;2023-04-19T10:34:52;101954.09;;;12.61;33.13
30636;BME280;17400;52.392;9.750;2023-04-19T10:37:22;101947.47;;;12.63;32.53
30636;BME280;17400;52.392;9.750;2023-04-19T10:39:51;101951.03;;;12.64;32.74
30636;BME280;17400;52.392;9.750;2023-04-19T10:42:19;101934.72;;;12.64;31.59
30636;BME280;17400;52.392;9.750;2023-04-19T10:47:53;101947.22;;;12.73;30.86
30636;BME280;17400;52.392;9.750;2023-04-19T10:50:23;101935.44;;;12.58;30.18
30636;BME280;17400;52.392;9.750;2023-04-19T10:52:51;101932.38;;;12.61;29.85
30636;BME280;17400;52.392;9.750;2023-04-19T10:55:19;101931.81;;;12.65;30.46
30636;BME280;17400;52.392;9.750;2023-04-19T10:58:03;101924.09;;;12.77;30.38
30636;BME280;17400;52.392;9.750;2023-04-19T11:00:32;101925.06;;;12.85;30.44
30636;BME280;17400;52.392;9.750;2023-04-19T11:06:22;101918.03;;;12.67;29.13
30636;BME280;17400;52.392;9.750;2023-04-19T11:08:53;101915.22;;;12.60;29.18
30636;BME280;17400;52.392;9.750;2023-04-19T11:11:21;101910.97;;;12.58;29.76
30636;BME280;17400;52.392;9.750;2023-04-19T11:13:49;101904.34;;;12.60;30.13
30636;BME280;17400;52.392;9.750;2023-04-19T11:16:16;101910.91;;;12.66;30.30
30636;BME280;17400;52.392;9.750;2023-04-19T11:18:48;101895.59;;;12.73;30.67
30636;BME280;17400;52.392;9.750;2023-04-19T11:21:17;101893.09;;;12.87;31.03
30636;BME280;17400;52.392;9.750;2023-04-19T11:23:46;101881.94;;;12.96;30.24
30636;BME280;17400;52.392;9.750;2023-04-19T11:26:17;101885.66;;;13.04;30.78
30636;BME280;17400;52.392;9.750;2023-04-19T11:28:45;101889.47;;;13.09;30.08
30636;BME280;17400;52.392;9.750;2023-04-19T11:31:13;101901.56;;;13.07;30.74
30636;BME280;17400;52.392;9.750;2023-04-19T11:33:42;101884.63;;;13.05;30.08
30636;BME280;17400;52.392;9.750;2023-04-19T11:36:10;101880.31;;;13.10;30.30
30636;BME280;17400;52.392;9.750;2023-04-19T11:38:38;101880.31;;;13.25;30.59
30636;BME280;17400;52.392;9.750;2023-04-19T11:41:07;101875.16;;;13.30;30.49
30636;BME280;17400;52.392;9.750;2023-04-19T11:43:35;101869.41;;;13.48;31.27
30636;BME280;17400;52.392;9.750;2023-04-19T11:46:04;101866.97;;;13.54;30.44
30636;BME280;17400;52.392;9.750;2023-04-19T11:48:32;101864.03;;;13.55;30.15
30636;BME280;17400;52.392;9.750;2023-04-19T11:51:00;101851.72;;;13.74;30.39
30636;BME280;17400;52.392;9.750;2023-04-19T11:53:30;101847.97;;;13.75;30.31
30636;BME280;17400;52.392;9.750;2023-04-19T11:56:04;101853.28;;;13.83;30.18
30636;BME280;17400;52.392;9.750;2023-04-19T11:58:37;101849.94;;;13.66;29.40
30636;BME280;17400;52.392;9.750;2023-04-19T12:01:07;101854.34;;;13.82;29.85
30636;BME280;17400;52.392;9.750;2023-04-19T12:03:40;101859.16;;;14.02;29.47
30636;BME280;17400;52.392;9.750;2023-04-19T12:06:10;101850.31;;;14.15;29.40
30636;BME280;17400;52.392;9.750;2023-04-19T12:08:42;101846.13;;;14.34;29.31
30636;BME280;17400;52.392;9.750;2023-04-19T12:11:10;101849.22;;;14.53;29.61
30636;BME280;17400;52.392;9.750;2023-04-19T12:13:40;101853.63;;;14.54;29.71
30636;BME280;17400;52.392;9.750;2023-04-19T12:16:10;101840.72;;;14.41;29.20
30636;BME280;17400;52.392;9.750;2023-04-19T12:18:42;101836.78;;;14.43;29.01
30636;BME280;17400;52.392;9.750;2023-04-19T12:21:11;101830.84;;;14.61;29.17
30636;BME280;17400;52.392;9.750;2023-04-19T12:23:52;101842.75;;;14.75;29.20
30636;BME280;17400;52.392;9.750;2023-04-19T12:26:20;101830.84;;;14.61;28.84
30636;BME280;17400;52.392;9.750;2023-04-19T12:28:49;101826.06;;;14.42;29.07
30636;BME280;17400;52.392;9.750;2023-04-19T12:31:17;101837.06;;;14.55;29.51
30636;BME280;17400;52.392;9.750;2023-04-19T12:33:46;101838.78;;;14.35;28.86
30636;BME280;17400;52.392;9.750;2023-04-19T12:36:14;101822.38;;;14.28;29.00
30636;BME280;17400;52.392;9.750;2023-04-19T12:38:41;101823.97;;;14.44;28.99
30636;BME280;17400;52.392;9.750;2023-04-19T12:41:09;101813.03;;;14.37;28.69
30636;BME280;17400;52.392;9.750;2023-04-19T12:43:37;101819.13;;;14.18;29.12
30636;BME280;17400;52.392;9.750;2023-04-19T12:46:06;101810.94;;;14.39;29.23
30636;BME280;17400;52.392;9.750;2023-04-19T12:48:34;101808.91;;;14.70;29.47
30636;BME280;17400;52.392;9.750;2023-04-19T12:51:02;101793.34;;;14.92;28.93
30636;BME280;17400;52.392;9.750;2023-04-19T12:53:31;101800.28;;;14.94;29.50
30636;BME280;17400;52.392;9.750;2023-04-19T12:55:58;101801.25;;;14.80;29.34
30636;BME280;17400;52.392;9.750;2023-04-19T12:58:26;101808.09;;;14.69;30.18
30636;BME280;17400;52.392;9.750;2023-04-19T13:00:54;101797.94;;;14.85;29.78
30636;BME280;17400;52.392;9.750;2023-04-19T13:03:23;101804.66;;;14.89;29.96
30636;BME280;17400;52.392;9.750;2023-04-19T13:05:51;101798.41;;;14.66;29.45
30636;BME280;17400;52.392;9.750;2023-04-19T13:08:18;101803.03;;;14.44;29.88
30636;BME280;17400;52.392;9.750;2023-04-19T13:10:59;101801.56;;;14.20;30.40
30636;BME280;17400;52.392;9.750;2023-04-19T13:13:28;101794.88;;;14.01;30.69
30636;BME280;17400;52.392;9.750;2023-04-19T13:15:56;101794.84;;;13.79;30.91